sensor_id;sensor_type;location;lat;lon;timestamp;pressure;altitude;pressure_sealevel;temperature;humidity
49297;BME280;35163;48.878;18.040;2022-10-31T00:01:17;99006.97;;;10.78;100.00
49297;BME280;35163;48.878;18.040;2022-10-31T00:03:45;99012.50;;;10.61;100.00
49297;BME280;35163;48.878;18.040;2022-10-31T00:06:11;99009.97;;;10.59;100.00
49297;BME280;35163;48.878;18.040;2022-10-31T00:08:38;99001.34;;;10.59;100.00
49297;BME280;35163;48.878;18.040;2022-10-31T00:11:08;99009.09;;;10.59;100.00
49297;BME280;35163;48.878;18.040;2022-10-31T00:13:35;99002.25;;;10.57;100.00
49297;BME280;35163;48.878;18.040;2022-10-31T00:16:02;98996.19;;;10.59;100.00
49297;BME280;35163;48.878;18.040;2022-10-31T00:18:29;99006.47;;;10.60;100.00
49297;BME280;35163;48.878;18.040;2022-10-31T00:21:00;99005.63;;;10.60;100.00
49297;BME280;35163;48.878;18.040;2022-10-31T00:23:26;99010.78;;;10.60;100.00
49297;BME280;35163;48.878;18.040;2022-10-31T00:25:53;98999.63;;;10.59;100.00
49297;BME280;35163;48.878;18.040;2022-10-31T00:28:20;99007.53;;;10.51;100.00
49297;BME280;35163;48.878;18.040;2022-10-31T00:30:46;99007.50;;;10.53;100.00
49297;BME280;35163;48.878;18.040;2022-10-31T00:33:13;99007.69;;;10.43;100.00
49297;BME280;35163;48.878;18.040;2022-10-31T00:35:39;99008.47;;;10.49;100.00
49297;BME280;35163;48.878;18.040;2022-10-31T00:38:06;99007.47;;;10.54;100.00
49297;BME280;35163;48.878;18.040;2022-10-31T00:40:32;99012.69;;;10.51;100.00
49297;BME280;35163;48.878;18.040;2022-10-31T00:42:59;99008.47;;;10.49;100.00
49297;BME280;35163;48.878;18.040;2022-10-31T00:45:26;99008.47;;;10.49;100.00
49297;BME280;35163;48.878;18.040;2022-10-31T00:47:53;99011.91;;;10.46;100.00
49297;BME280;35163;48.878;18.040;2022-10-31T00:50:19;99008.50;;;10.44;100.00
49297;BME280;35163;48.878;18.040;2022-10-31T00:52:46;99007.91;;;10.32;100.00
49297;BME280;35163;48.878;18.040;2022-10-31T00:55:12;99005.63;;;10.17;100.00
49297;BME280;35163;48.878;18.040;2022-10-31T00:57:39;99004.75;;;10.18;100.00
49297;BME280;35163;48.878;18.040;2022-10-31T01:00:06;99010.88;;;10.14;100.00
49297;BME280;35163;48.878;18.040;2022-10-31T01:02:33;99002.97;;;10.21;100.00
49297;BME280;35163;48.878;18.040;2022-10-31T01:04:59;99012.19;;;10.32;100.00
49297;BME280;35163;48.878;18.040;2022-10-31T01:07:26;99009.41;;;10.43;100.00
49297;BME280;35163;48.878;18.040;2022-10-31T01:09:53;99003.28;;;10.49;100.00
49297;BME280;35163;48.878;18.040;2022-10-31T01:12:19;99004.09;;;10.52;100.00
49297;BME280;35163;48.878;18.040;2022-10-31T01:14:46;98998.00;;;10.53;100.00
49297;BME280;35163;48.878;18.040;2022-10-31T01:17:13;98998.72;;;10.60;100.00
49297;BME280;35163;48.878;18.040;2022-10-31T01:19:40;99002.97;;;10.64;100.00
49297;BME280;35163;48.878;18.040;2022-10-31T01:22:06;99001.16;;;10.68;100.00
49297;BME280;35163;48.878;18.040;2022-10-31T01:24:33;98995.94;;;10.69;100.00
49297;BME280;35163;48.878;18.040;2022-10-31T01:27:00;98998.53;;;10.69;100.00
49297;BME280;35163;48.878;18.040;2022-10-31T01:29:26;98992.47;;;10.71;100.00
49297;BME280;35163;48.878;18.040;2022-10-31T01:31:53;98999.41;;;10.68;100.00
49297;BME280;35163;48.878;18.040;2022-10-31T01:34:20;98996.72;;;10.72;100.00
49297;BME280;35163;48.878;18.040;2022-10-31T01:36:46;98998.38;;;10.76;100.00
49297;BME280;35163;48.878;18.040;2022-10-31T01:39:18;98997.47;;;10.77;100.00
49297;BME280;35163;48.878;18.040;2022-10-31T01:41:51;98994.03;;;10.78;100.00
49297;BME280;35163;48.878;18.040;2022-10-31T01:51:56;99000.38;;;10.64;100.00
49297;BME280;35163;48.878;18.040;2022-10-31T01:54:28;98999.44;;;10.67;100.00
49297;BME280;35163;48.878;18.040;2022-10-31T01:56:57;98998.50;;;10.71;100.00
49297;BME280;35163;48.878;18.040;2022-10-31T01:59:27;98999.41;;;10.68;100.00
49297;BME280;35163;48.878;18.040;2022-10-31T02:01:55;98995.91;;;10.71;100.00
49297;BME280;35163;48.878;18.040;2022-10-31T02:04:23;98997.78;;;10.64;100.00
49297;BME280;35163;48.878;18.040;2022-10-31T02:06:56;99001.09;;;10.71;100.00
49297;BME280;35163;48.878;18.040;2022-10-31T02:09:26;98983.81;;;10.72;100.00
49297;BME280;35163;48.878;18.040;2022-10-31T02:11:55;98994.09;;;10.75;100.00
49297;BME280;35163;48.878;18.040;2022-10-31T02:14:28;98991.47;;;10.76;100.00
49297;BME280;35163;48.878;18.040;2022-10-31T02:16:57;98982.88;;;10.76;100.00
49297;BME280;35163;48.878;18.040;2022-10-31T02:19:45;98989.69;;;10.78;100.00
49297;BME280;35163;48.878;18.040;2022-10-31T02:22:28;98984.50;;;10.80;100.00
49297;BME280;35163;48.878;18.040;2022-10-31T02:30:23;98986.56;;;10.64;100.00
49297;BME280;35163;48.878;18.040;2022-10-31T02:36:20;98986.25;;;10.38;100.00
49297;BME280;35163;48.878;18.040;2022-10-31T02:41:37;98987.22;;;10.32;100.00
49297;BME280;35163;48.878;18.040;2022-10-31T02:44:16;98980.19;;;10.39;100.00
49297;BME280;35163;48.878;18.040;2022-10-31T02:46:48;98985.28;;;10.42;100.00
49297;BME280;35163;48.878;18.040;2022-10-31T02:49:39;98981.97;;;10.36;100.00
49297;BME280;35163;48.878;18.040;2022-10-31T02:52:17;98983.69;;;10.37;100.00
49297;BME280;35163;48.878;18.040;2022-10-31T02:54:46;98986.31;;;10.35;100.00
49297;BME280;35163;48.878;18.040;2022-10-31T02:57:14;98991.44;;;10.37;100.00
49297;BME280;35163;48.878;18.040;2022-10-31T02:59:48;98992.59;;;10.23;100.00
49297;BME280;35163;48.878;18.040;2022-10-31T03:02:29;98991.16;;;10.09;100.00
49297;BME280;35163;48.878;18.040;2022-10-31T03:21:00;99003.63;;;9.85;100.00
49297;BME280;35163;48.878;18.040;2022-10-31T03:23:30;99009.56;;;9.91;100.00
49297;BME280;35163;48.878;18.040;2022-10-31T03:26:00;99008.72;;;9.92;100.00
49297;BME280;35163;48.878;18.040;2022-10-31T03:28:34;99004.41;;;9.92;100.00
49297;BME280;35163;48.878;18.040;2022-10-31T03:31:04;99006.97;;;9.94;100.00
49297;BME280;35163;48.878;18.040;2022-10-31T03:33:36;99010.66;;;9.80;100.00
49297;BME280;35163;48.878;18.040;2022-10-31T03:36:05;99010.59;;;9.83;100.00
49297;BME280;35163;48.878;18.040;2022-10-31T03:38:35;99013.25;;;9.80;100.00
49297;BME280;35163;48.878;18.040;2022-10-31T03:41:03;99009.78;;;9.80;100.00
49297;BME280;35163;48.878;18.040;2022-10-31T03:43:33;99011.66;;;9.71;100.00
49297;BME280;35163;48.878;18.040;2022-10-31T03:46:04;99007.41;;;9.69;100.00
49297;BME280;35163;48.878;18.040;2022-10-31T03:48:31;99009.88;;;9.73;100.00
49297;BME280;35163;48.878;18.040;2022-10-31T03:54:05;99005.91;;;9.55;100.00
49297;BME280;35163;48.878;18.040;2022-10-31T03:56:37;99007.72;;;9.52;100.00
49297;BME280;35163;48.878;18.040;2022-10-31T03:59:15;99002.44;;;9.58;100.00
49297;BME280;35163;48.878;18.040;2022-10-31T04:01:49;99010.94;;;9.65;100.00
49297;BME280;35163;48.878;18.040;2022-10-31T04:04:19;99001.41;;;9.68;100.00
49297;BME280;35163;48.878;18.040;2022-10-31T04:06:47;99003.88;;;9.75;100.00
49297;BME280;35163;48.878;18.040;2022-10-31T04:09:14;99000.28;;;9.82;100.00
49297;BME280;35163;48.878;18.040;2022-10-31T04:11:48;99001.03;;;9.89;100.00
49297;BME280;35163;48.878;18.040;2022-10-31T04:14:16;99000.09;;;9.91;100.00
49297;BME280;35163;48.878;18.040;2022-10-31T04:16:43;98999.28;;;9.89;100.00
49297;BME280;35163;48.878;18.040;2022-10-31T04:19:11;99003.03;;;9.72;100.00
49297;BME280;35163;48.878;18.040;2022-10-31T04:21:38;99002.22;;;9.69;100.00
49297;BME280;35163;48.878;18.040;2022-10-31T04:24:05;98994.53;;;9.67;100.00
49297;BME280;35163;48.878;18.040;2022-10-31T04:26:31;98991.09;;;9.65;100.00
49297;BME280;35163;48.878;18.040;2022-10-31T04:28:58;98991.19;;;9.60;100.00
49297;BME280;35163;48.878;18.040;2022-10-31T04:31:24;98993.69;;;9.65;100.00
49297;BME280;35163;48.878;18.040;2022-10-31T04:33:51;98996.19;;;9.71;100.00
49297;BME280;35163;48.878;18.040;2022-10-31T04:36:18;98999.69;;;9.67;100.00
49297;BME280;35163;48.878;18.040;2022-10-31T04:38:44;98984.31;;;9.61;100.00
49297;BME280;35163;48.878;18.040;2022-10-31T04:41:11;98992.13;;;9.58;100.00
49297;BME280;35163;48.878;18.040;2022-10-31T04:43:37;98993.75;;;9.62;100.00
49297;BME280;35163;48.878;18.040;2022-10-31T04:46:04;98999.13;;;9.51;100.00
49297;BME280;35163;48.878;18.040;2022-10-31T04:48:31;99008.09;;;9.30;100.00
49297;BME280;35163;48.878;18.040;2022-10-31T04:51:01;99003.84;;;9.26;100.00
49297;BME280;35163;48.878;18.040;2022-10-31T04:53:28;99009.97;;;9.20;100.00
49297;BME280;35163;48.878;18.040;2022-10-31T04:55:58;99002.25;;;9.18;100.00
49297;BME280;35163;48.878;18.040;2022-10-31T04:58:25;99008.25;;;9.19;100.00
49297;BME280;35163;48.878;18.040;2022-10-31T05:00:55;99007.56;;;9.09;100.00
49297;BME280;35163;48.878;18.040;2022-10-31T05:03:22;99007.50;;;9.12;100.00
49297;BME280;35163;48.878;18.040;2022-10-31T05:05:49;99014.44;;;9.10;100.00
49297;BME280;35163;48.878;18.040;2022-10-31T05:08:15;99018.88;;;8.98;100.00
49297;BME280;35163;48.878;18.040;2022-10-31T05:10:42;99016.53;;;8.83;100.00
49297;BME280;35163;48.878;18.040;2022-10-31T05:13:09;99011.63;;;8.66;100.00
49297;BME280;35163;48.878;18.040;2022-10-31T05:15:36;99015.97;;;8.63;100.00
49297;BME280;35163;48.878;18.040;2022-10-31T05:18:02;99013.31;;;8.68;100.00
49297;BME280;35163;48.878;18.040;2022-10-31T05:20:30;99016.53;;;8.83;100.00
49297;BME280;35163;48.878;18.040;2022-10-31T05:22:58;99018.09;;;8.93;100.00
49297;BME280;35163;48.878;18.040;2022-10-31T05:25:26;99009.53;;;8.91;100.00
49297;BME280;35163;48.878;18.040;2022-10-31T05:27:54;99018.09;;;8.93;100.00
49297;BME280;35163;48.878;18.040;2022-10-31T05:30:27;99013.00;;;8.90;100.00
49297;BME280;35163;48.878;18.040;2022-10-31T05:32:55;99017.25;;;8.94;100.00
49297;BME280;35163;48.878;18.040;2022-10-31T05:35:28;99028.38;;;8.96;100.00
49297;BME280;35163;48.878;18.040;2022-10-31T05:37:55;99024.00;;;9.02;100.00
49297;BME280;35163;48.878;18.040;2022-10-31T05:40:21;99029.09;;;9.08;100.00
49297;BME280;35163;48.878;18.040;2022-10-31T05:42:51;99031.72;;;9.02;100.00
49297;BME280;35163;48.878;18.040;2022-10-31T05:45:19;99036.94;;;8.98;100.00
49297;BME280;35163;48.878;18.040;2022-10-31T05:47:57;99036.09;;;8.96;100.00
49297;BME280;35163;48.878;18.040;2022-10-31T05:50:27;99044.06;;;8.84;100.00
49297;BME280;35163;48.878;18.040;2022-10-31T05:52:56;99044.09;;;8.81;100.00
49297;BME280;35163;48.878;18.040;2022-10-31T05:55:24;99048.28;;;8.88;100.00
49297;BME280;35163;48.878;18.040;2022-10-31T05:57:52;99045.56;;;8.97;100.00
49297;BME280;35163;48.878;18.040;2022-10-31T06:00:20;99048.88;;;9.06;100.00
49297;BME280;35163;48.878;18.040;2022-10-31T06:02:47;99057.34;;;9.14;100.00
49297;BME280;35163;48.878;18.040;2022-10-31T06:05:14;99059.03;;;9.18;100.00
49297;BME280;35163;48.878;18.040;2022-10-31T06:07:41;99061.63;;;9.17;100.00
49297;BME280;35163;48.878;18.040;2022-10-31T06:10:08;99065.16;;;9.11;100.00
49297;BME280;35163;48.878;18.040;2022-10-31T06:12:35;99065.91;;;9.18;100.00
49297;BME280;35163;48.878;18.040;2022-10-31T06:15:08;99066.78;;;9.15;100.00
49297;BME280;35163;48.878;18.040;2022-10-31T06:17:35;99076.09;;;9.26;100.00
49297;BME280;35163;48.878;18.040;2022-10-31T06:20:02;99074.28;;;9.31;100.00
49297;BME280;35163;48.878;18.040;2022-10-31T06:22:29;99071.66;;;9.35;100.00
49297;BME280;35163;48.878;18.040;2022-10-31T06:24:56;99076.19;;;9.19;100.00
49297;BME280;35163;48.878;18.040;2022-10-31T06:27:23;99072.00;;;9.12;100.00
49297;BME280;35163;48.878;18.040;2022-10-31T06:29:49;99076.19;;;9.19;100.00
49297;BME280;35163;48.878;18.040;2022-10-31T06:32:16;99073.50;;;9.27;100.00
49297;BME280;35163;48.878;18.040;2022-10-31T06:34:44;99079.38;;;9.37;100.00
49297;BME280;35163;48.878;18.040;2022-10-31T06:37:11;99079.25;;;9.43;100.00
49297;BME280;35163;48.878;18.040;2022-10-31T06:39:38;99084.59;;;9.34;100.00
49297;BME280;35163;48.878;18.040;2022-10-31T06:42:05;99080.25;;;9.34;100.00
49297;BME280;35163;48.878;18.040;2022-10-31T06:44:31;99076.72;;;9.42;100.00
49297;BME280;35163;48.878;18.040;2022-10-31T06:46:59;99080.28;;;9.33;100.00
49297;BME280;35163;48.878;18.040;2022-10-31T06:49:25;99082.84;;;9.34;100.00
49297;BME280;35163;48.878;18.040;2022-10-31T06:51:52;99084.19;;;9.02;100.00
49297;BME280;35163;48.878;18.040;2022-10-31T06:54:18;99085.22;;;8.90;100.00
49297;BME280;35163;48.878;18.040;2022-10-31T06:56:46;99093.09;;;8.81;100.00
49297;BME280;35163;48.878;18.040;2022-10-31T06:59:14;99081.09;;;8.77;100.00
49297;BME280;35163;48.878;18.040;2022-10-31T07:01:41;99089.63;;;8.82;100.00
49297;BME280;35163;48.878;18.040;2022-10-31T07:04:09;99091.41;;;8.77;100.00
49297;BME280;35163;48.878;18.040;2022-10-31T07:06:36;99094.09;;;8.70;100.00
49297;BME280;35163;48.878;18.040;2022-10-31T07:09:04;99089.81;;;8.66;100.00
49297;BME280;35163;48.878;18.040;2022-10-31T07:11:30;99088.97;;;8.66;100.00
49297;BME280;35163;48.878;18.040;2022-10-31T07:13:57;99084.50;;;8.80;100.00
49297;BME280;35163;48.878;18.040;2022-10-31T07:16:24;99093.75;;;8.95;100.00
49297;BME280;35163;48.878;18.040;2022-10-31T07:18:50;99085.84;;;9.08;100.00
49297;BME280;35163;48.878;18.040;2022-10-31T07:21:17;99086.53;;;9.18;100.00
49297;BME280;35163;48.878;18.040;2022-10-31T07:23:43;99088.09;;;9.30;100.00
49297;BME280;35163;48.878;18.040;2022-10-31T07:26:10;99089.78;;;9.31;100.00
49297;BME280;35163;48.878;18.040;2022-10-31T07:28:36;99092.34;;;9.34;100.00
49297;BME280;35163;48.878;18.040;2022-10-31T07:31:03;99091.44;;;9.35;100.00
49297;BME280;35163;48.878;18.040;2022-10-31T07:33:30;99095.66;;;9.42;100.00
49297;BME280;35163;48.878;18.040;2022-10-31T07:35:56;99089.50;;;9.48;100.00
49297;BME280;35163;48.878;18.040;2022-10-31T07:38:23;99098.28;;;9.39;100.00
49297;BME280;35163;48.878;18.040;2022-10-31T07:40:52;99086.25;;;9.36;100.00
49297;BME280;35163;48.878;18.040;2022-10-31T07:43:19;99095.78;;;9.33;100.00
49297;BME280;35163;48.878;18.040;2022-10-31T07:45:53;99087.91;;;9.42;100.00
49297;BME280;35163;48.878;18.040;2022-10-31T07:48:19;99092.22;;;9.40;100.00
49297;BME280;35163;48.878;18.040;2022-10-31T07:50:46;99093.84;;;9.47;100.00
49297;BME280;35163;48.878;18.040;2022-10-31T07:53:14;99093.66;;;9.58;100.00
49297;BME280;35163;48.878;18.040;2022-10-31T07:55:41;99091.91;;;9.60;100.00
49297;BME280;35163;48.878;18.040;2022-10-31T07:58:11;99095.50;;;9.50;100.00
49297;BME280;35163;48.878;18.040;2022-10-31T08:00:39;99098.94;;;9.52;100.00
49297;BME280;35163;48.878;18.040;2022-10-31T08:03:09;99103.03;;;9.64;100.00
49297;BME280;35163;48.878;18.040;2022-10-31T08:05:37;99098.66;;;9.68;100.00
49297;BME280;35163;48.878;18.040;2022-10-31T08:08:04;99099.34;;;9.78;100.00
49297;BME280;35163;48.878;18.040;2022-10-31T08:10:32;99102.69;;;9.84;100.00
49297;BME280;35163;48.878;18.040;2022-10-31T08:13:04;99108.66;;;9.88;100.00
49297;BME280;35163;48.878;18.040;2022-10-31T08:15:32;99102.59;;;9.89;100.00
49297;BME280;35163;48.878;18.040;2022-10-31T08:18:00;99101.91;;;9.79;100.00
49297;BME280;35163;48.878;18.040;2022-10-31T08:20:28;99109.53;;;9.87;100.00
49297;BME280;35163;48.878;18.040;2022-10-31T08:22:57;99106.91;;;9.90;100.00
49297;BME280;35163;48.878;18.040;2022-10-31T08:25:26;99102.56;;;9.92;100.00
49297;BME280;35163;48.878;18.040;2022-10-31T08:27:59;99101.69;;;9.93;100.00
49297;BME280;35163;48.878;18.040;2022-10-31T08:30:29;99098.97;;;10.00;100.00
49297;BME280;35163;48.878;18.040;2022-10-31T08:35:32;99102.38;;;10.02;100.00
49297;BME280;35163;48.878;18.040;2022-10-31T08:37:59;99103.47;;;9.90;100.00
49297;BME280;35163;48.878;18.040;2022-10-31T08:40:28;99100.91;;;9.88;100.00
49297;BME280;35163;48.878;18.040;2022-10-31T08:45:29;99103.34;;;9.98;100.00
49297;BME280;35163;48.878;18.040;2022-10-31T08:48:00;99095.75;;;9.87;100.00
49297;BME280;35163;48.878;18.040;2022-10-31T08:50:29;99098.19;;;9.94;100.00
49297;BME280;35163;48.878;18.040;2022-10-31T08:53:00;99092.88;;;10.04;100.00
49297;BME280;35163;48.878;18.040;2022-10-31T08:55:36;99103.25;;;10.02;100.00
49297;BME280;35163;48.878;18.040;2022-10-31T08:58:04;99097.97;;;10.07;100.00
49297;BME280;35163;48.878;18.040;2022-10-31T09:00:33;99095.31;;;10.12;100.00
49297;BME280;35163;48.878;18.040;2022-10-31T09:03:02;99092.72;;;10.12;100.00
49297;BME280;35163;48.878;18.040;2022-10-31T09:05:29;99095.28;;;10.13;100.00
49297;BME280;35163;48.878;18.040;2022-10-31T09:07:59;99091.69;;;10.20;100.00
49297;BME280;35163;48.878;18.040;2022-10-31T09:10:28;99096.22;;;10.09;100.00
49297;BME280;35163;48.878;18.040;2022-10-31T09:13:16;99093.47;;;10.18;100.00
49297;BME280;35163;48.878;18.040;2022-10-31T09:15:44;99094.91;;;10.32;100.00
49297;BME280;35163;48.878;18.040;2022-10-31T09:18:13;99097.41;;;10.38;100.00
49297;BME280;35163;48.878;18.040;2022-10-31T09:20:41;99092.06;;;10.46;100.00
49297;BME280;35163;48.878;18.040;2022-10-31T09:23:19;99095.44;;;10.51;100.00
49297;BME280;35163;48.878;18.040;2022-10-31T09:25:47;99089.38;;;10.54;100.00
49297;BME280;35163;48.878;18.040;2022-10-31T09:28:18;99088.63;;;10.49;100.00
49297;BME280;35163;48.878;18.040;2022-10-31T09:30:50;99095.56;;;10.43;100.00
49297;BME280;35163;48.878;18.040;2022-10-31T09:33:17;99087.75;;;10.47;100.00
49297;BME280;35163;48.878;18.040;2022-10-31T09:35:44;99081.63;;;10.54;100.00
49297;BME280;35163;48.878;18.040;2022-10-31T09:38:16;99090.16;;;10.57;100.00
49297;BME280;35163;48.878;18.040;2022-10-31T09:41:13;99085.66;;;10.67;100.00
49297;BME280;35163;48.878;18.040;2022-10-31T09:43:54;99084.72;;;10.70;100.00
49297;BME280;35163;48.878;18.040;2022-10-31T09:51:37;99091.47;;;10.77;100.00
49297;BME280;35163;48.878;18.040;2022-10-31T09:54:13;99087.19;;;10.76;100.00
49297;BME280;35163;48.878;18.040;2022-10-31T09:56:40;99083.81;;;10.73;100.00
49297;BME280;35163;48.878;18.040;2022-10-31T09:59:18;99090.75;;;10.71;100.00
49297;BME280;35163;48.878;18.040;2022-10-31T10:01:59;99086.38;;;10.74;100.00
49297;BME280;35163;48.878;18.040;2022-10-31T10:04:41;99088.81;;;10.80;100.00
49297;BME280;35163;48.878;18.040;2022-10-31T10:07:30;99093.22;;;10.75;100.00
49297;BME280;35163;48.878;18.040;2022-10-31T10:10:00;99092.41;;;10.75;100.00
49297;BME280;35163;48.878;18.040;2022-10-31T10:15:36;99092.47;;;10.70;100.00
49297;BME280;35163;48.878;18.040;2022-10-31T10:23:41;99088.91;;;10.76;100.00
49297;BME280;35163;48.878;18.040;2022-10-31T10:26:17;99102.53;;;10.84;100.00
49297;BME280;35163;48.878;18.040;2022-10-31T10:28:51;99093.69;;;10.94;100.00
49297;BME280;35163;48.878;18.040;2022-10-31T10:31:24;99092.75;;;10.99;100.00
49297;BME280;35163;48.878;18.040;2022-10-31T10:36:39;99101.19;;;11.07;100.00
49297;BME280;35163;48.878;18.040;2022-10-31T10:39:45;99091.66;;;11.08;100.00
49297;BME280;35163;48.878;18.040;2022-10-31T10:42:14;99091.56;;;11.12;100.00
49297;BME280;35163;48.878;18.040;2022-10-31T10:45:12;99086.41;;;11.12;100.00
49297;BME280;35163;48.878;18.040;2022-10-31T10:48:05;99082.19;;;11.06;100.00
49297;BME280;35163;48.878;18.040;2022-10-31T10:50:39;99079.41;;;11.14;100.00
49297;BME280;35163;48.878;18.040;2022-10-31T10:53:26;99082.66;;;11.24;100.00
49297;BME280;35163;48.878;18.040;2022-10-31T10:56:23;99073.84;;;11.33;100.00
49297;BME280;35163;48.878;18.040;2022-10-31T10:58:56;99070.34;;;11.34;100.00
49297;BME280;35163;48.878;18.040;2022-10-31T11:01:24;99074.59;;;11.37;100.00
49297;BME280;35163;48.878;18.040;2022-10-31T11:03:51;99073.59;;;11.42;100.00
49297;BME280;35163;48.878;18.040;2022-10-31T11:06:22;99070.97;;;11.44;100.00
49297;BME280;35163;48.878;18.040;2022-10-31T11:08:52;99069.19;;;11.46;100.00
49297;BME280;35163;48.878;18.040;2022-10-31T11:14:12;99066.66;;;11.45;100.00
49297;BME280;35163;48.878;18.040;2022-10-31T11:16:42;99063.31;;;11.39;100.00
49297;BME280;35163;48.878;18.040;2022-10-31T11:19:19;99063.31;;;11.39;100.00
49297;BME280;35163;48.878;18.040;2022-10-31T11:21:48;99065.78;;;11.44;100.00
49297;BME280;35163;48.878;18.040;2022-10-31T11:24:26;99057.22;;;11.42;100.00
49297;BME280;35163;48.878;18.040;2022-10-31T11:27:10;99058.84;;;11.46;100.00
49297;BME280;35163;48.878;18.040;2022-10-31T11:29:39;99057.97;;;11.46;100.00
49297;BME280;35163;48.878;18.040;2022-10-31T11:32:24;99060.50;;;11.49;100.00
49297;BME280;35163;48.878;18.040;2022-10-31T11:34:55;99060.47;;;11.50;100.00
49297;BME280;35163;48.878;18.040;2022-10-31T11:37:28;99055.25;;;11.52;100.00
49297;BME280;35163;48.878;18.040;2022-10-31T11:40:00;99059.44;;;11.56;100.00
49297;BME280;35163;48.878;18.040;2022-10-31T11:42:35;99061.19;;;11.57;100.00
49297;BME280;35163;48.878;18.040;2022-10-31T11:45:30;99061.19;;;11.57;100.00
49297;BME280;35163;48.878;18.040;2022-10-31T11:47:59;99056.03;;;11.54;100.00
49297;BME280;35163;48.878;18.040;2022-10-31T11:52:59;99050.09;;;11.52;100.00
49297;BME280;35163;48.878;18.040;2022-10-31T11:55:40;99055.22;;;11.53;100.00
49297;BME280;35163;48.878;18.040;2022-10-31T11:58:24;99055.91;;;11.60;100.00
49297;BME280;35163;48.878;18.040;2022-10-31T12:00:53;99050.78;;;11.59;100.00
49297;BME280;35163;48.878;18.040;2022-10-31T12:08:19;99043.69;;;11.65;100.00
49297;BME280;35163;48.878;18.040;2022-10-31T12:16:19;99043.59;;;11.69;100.00
49297;BME280;35163;48.878;18.040;2022-10-31T12:22:03;99035.03;;;11.66;100.00
49297;BME280;35163;48.878;18.040;2022-10-31T12:49:42;99031.34;;;11.75;100.00
49297;BME280;35163;48.878;18.040;2022-10-31T12:52:29;99019.31;;;11.73;100.00
49297;BME280;35163;48.878;18.040;2022-10-31T12:58:02;99020.25;;;11.70;100.00
49297;BME280;35163;48.878;18.040;2022-10-31T13:00:31;99015.97;;;11.69;100.00
49297;BME280;35163;48.878;18.040;2022-10-31T13:03:17;99019.25;;;11.76;100.00
49297;BME280;35163;48.878;18.040;2022-10-31T13:05:51;99013.22;;;11.75;100.00
49297;BME280;35163;48.878;18.040;2022-10-31T13:08:34;99015.66;;;11.80;100.00
49297;BME280;35163;48.878;18.040;2022-10-31T13:11:06;99020.81;;;11.82;100.00
49297;BME280;35163;48.878;18.040;2022-10-31T13:13:41;99010.47;;;11.80;100.00
49297;BME280;35163;48.878;18.040;2022-10-31T13:16:15;99006.94;;;11.84;100.00
49297;BME280;35163;48.878;18.040;2022-10-31T13:18:47;99004.34;;;11.84;100.00
49297;BME280;35163;48.878;18.040;2022-10-31T13:21:20;99002.56;;;11.86;100.00
49297;BME280;35163;48.878;18.040;2022-10-31T13:23:50;99007.66;;;11.89;100.00
49297;BME280;35163;48.878;18.040;2022-10-31T13:26:27;99002.56;;;11.86;100.00
49297;BME280;35163;48.878;18.040;2022-10-31T13:31:28;99000.81;;;11.87;100.00
49297;BME280;35163;48.878;18.040;2022-10-31T13:34:08;99000.88;;;11.84;100.00
49297;BME280;35163;48.878;18.040;2022-10-31T13:41:44;99002.75;;;11.78;100.00
49297;BME280;35163;48.878;18.040;2022-10-31T13:44:17;98998.44;;;11.79;100.00
49297;BME280;35163;48.878;18.040;2022-10-31T13:46:45;98995.88;;;11.77;100.00
49297;BME280;35163;48.878;18.040;2022-10-31T13:49:41;98997.66;;;11.75;100.00
49297;BME280;35163;48.878;18.040;2022-10-31T13:54:39;98998.56;;;11.73;100.00
49297;BME280;35163;48.878;18.040;2022-10-31T13:57:27;99005.47;;;11.74;100.00
49297;BME280;35163;48.878;18.040;2022-10-31T14:02:48;99007.34;;;11.69;100.00
49297;BME280;35163;48.878;18.040;2022-10-31T14:07:49;99006.66;;;11.62;100.00
49297;BME280;35163;48.878;18.040;2022-10-31T14:10:24;99009.28;;;11.60;100.00
49297;BME280;35163;48.878;18.040;2022-10-31T14:12:53;98995.53;;;11.58;100.00
49297;BME280;35163;48.878;18.040;2022-10-31T14:15:26;99001.66;;;11.54;100.00
49297;BME280;35163;48.878;18.040;2022-10-31T14:18:06;98996.44;;;11.55;100.00
49297;BME280;35163;48.878;18.040;2022-10-31T14:20:43;98995.59;;;11.55;100.00
49297;BME280;35163;48.878;18.040;2022-10-31T14:28:41;99007.81;;;11.50;100.00
49297;BME280;35163;48.878;18.040;2022-10-31T14:31:37;98994.06;;;11.48;100.00
49297;BME280;35163;48.878;18.040;2022-10-31T14:36:50;98992.34;;;11.48;100.00
49297;BME280;35163;48.878;18.040;2022-10-31T14:47:39;98986.41;;;11.43;100.00
49297;BME280;35163;48.878;18.040;2022-10-31T14:50:30;98987.25;;;11.43;100.00
49297;BME280;35163;48.878;18.040;2022-10-31T14:53:01;98980.44;;;11.41;100.00
49297;BME280;35163;48.878;18.040;2022-10-31T14:55:29;98983.06;;;11.39;100.00
49297;BME280;35163;48.878;18.040;2022-10-31T14:58:00;98987.41;;;11.37;100.00
49297;BME280;35163;48.878;18.040;2022-10-31T15:00:28;98986.56;;;11.37;100.00
49297;BME280;35163;48.878;18.040;2022-10-31T15:05:46;98984.78;;;11.39;100.00
49297;BME280;35163;48.878;18.040;2022-10-31T15:08:37;98986.69;;;11.32;100.00
49297;BME280;35163;48.878;18.040;2022-10-31T15:11:12;98985.94;;;11.27;100.00
49297;BME280;35163;48.878;18.040;2022-10-31T15:13:58;98986.91;;;11.24;100.00
49297;BME280;35163;48.878;18.040;2022-10-31T15:16:33;98985.94;;;11.27;100.00
49297;BME280;35163;48.878;18.040;2022-10-31T15:19:09;98987.59;;;11.31;100.00
49297;BME280;35163;48.878;18.040;2022-10-31T15:21:40;98990.13;;;11.33;100.00
49297;BME280;35163;48.878;18.040;2022-10-31T15:24:13;98979.69;;;11.36;100.00